sensor_id;sensor_type;location;lat;lon;timestamp;temperature;humidity
8093;DHT22;4089;52.420;13.334;2023-05-23T00:01:37;18.90;60.70
8093;DHT22;4089;52.420;13.334;2023-05-23T00:04:04;18.80;61.60
8093;DHT22;4089;52.420;13.334;2023-05-23T00:06:32;18.70;59.80
8093;DHT22;4089;52.420;13.334;2023-05-23T00:09:00;18.60;60.50
8093;DHT22;4089;52.420;13.334;2023-05-23T00:11:26;18.50;63.00
8093;DHT22;4089;52.420;13.334;2023-05-23T00:13:55;18.50;59.50
8093;DHT22;4089;52.420;13.334;2023-05-23T00:16:23;18.50;63.50
8093;DHT22;4089;52.420;13.334;2023-05-23T00:18:49;18.40;61.50
8093;DHT22;4089;52.420;13.334;2023-05-23T00:21:17;18.40;61.50
8093;DHT22;4089;52.420;13.334;2023-05-23T00:23:44;18.30;62.10
8093;DHT22;4089;52.420;13.334;2023-05-23T00:26:11;18.20;62.90
8093;DHT22;4089;52.420;13.334;2023-05-23T00:28:37;18.20;63.10
8093;DHT22;4089;52.420;13.334;2023-05-23T00:31:04;18.20;63.10
8093;DHT22;4089;52.420;13.334;2023-05-23T00:33:31;18.10;66.70
8093;DHT22;4089;52.420;13.334;2023-05-23T00:35:59;18.10;65.10
8093;DHT22;4089;52.420;13.334;2023-05-23T00:38:26;18.10;66.30
8093;DHT22;4089;52.420;13.334;2023-05-23T00:40:54;18.10;66.30
8093;DHT22;4089;52.420;13.334;2023-05-23T00:43:20;18.00;67.60
8093;DHT22;4089;52.420;13.334;2023-05-23T00:45:48;17.90;67.00
8093;DHT22;4089;52.420;13.334;2023-05-23T00:48:15;17.90;68.30
8093;DHT22;4089;52.420;13.334;2023-05-23T00:50:42;17.90;70.80
8093;DHT22;4089;52.420;13.334;2023-05-23T00:53:09;17.80;70.00
8093;DHT22;4089;52.420;13.334;2023-05-23T00:55:36;17.80;72.30
8093;DHT22;4089;52.420;13.334;2023-05-23T00:58:05;17.70;71.50
8093;DHT22;4089;52.420;13.334;2023-05-23T01:00:32;17.70;72.50
8093;DHT22;4089;52.420;13.334;2023-05-23T01:03:00;17.60;72.60
8093;DHT22;4089;52.420;13.334;2023-05-23T01:05:27;17.60;73.10
8093;DHT22;4089;52.420;13.334;2023-05-23T01:07:54;17.60;75.10
8093;DHT22;4089;52.420;13.334;2023-05-23T01:10:27;17.50;76.00
8093;DHT22;4089;52.420;13.334;2023-05-23T01:16:00;17.50;80.80
8093;DHT22;4089;52.420;13.334;2023-05-23T01:18:38;17.50;81.40
8093;DHT22;4089;52.420;13.334;2023-05-23T01:21:14;17.60;85.60
8093;DHT22;4089;52.420;13.334;2023-05-23T01:29:08;17.70;87.50
8093;DHT22;4089;52.420;13.334;2023-05-23T01:31:41;17.60;84.60
8093;DHT22;4089;52.420;13.334;2023-05-23T01:34:09;17.70;86.90
8093;DHT22;4089;52.420;13.334;2023-05-23T01:36:42;17.70;85.60
8093;DHT22;4089;52.420;13.334;2023-05-23T01:39:09;17.70;87.50
8093;DHT22;4089;52.420;13.334;2023-05-23T01:41:36;17.60;88.30
8093;DHT22;4089;52.420;13.334;2023-05-23T01:44:04;17.40;88.20
8093;DHT22;4089;52.420;13.334;2023-05-23T01:46:31;17.40;89.40
8093;DHT22;4089;52.420;13.334;2023-05-23T01:49:02;17.30;89.40
8093;DHT22;4089;52.420;13.334;2023-05-23T01:51:30;17.40;90.40
8093;DHT22;4089;52.420;13.334;2023-05-23T01:53:57;17.40;92.60
8093;DHT22;4089;52.420;13.334;2023-05-23T01:56:24;17.50;93.00
8093;DHT22;4089;52.420;13.334;2023-05-23T01:58:52;17.60;91.00
8093;DHT22;4089;52.420;13.334;2023-05-23T02:01:20;17.60;90.70
8093;DHT22;4089;52.420;13.334;2023-05-23T02:03:48;17.60;90.50
8093;DHT22;4089;52.420;13.334;2023-05-23T02:06:14;17.60;91.40
8093;DHT22;4089;52.420;13.334;2023-05-23T02:08:41;17.60;91.80
8093;DHT22;4089;52.420;13.334;2023-05-23T02:11:08;17.50;91.10
8093;DHT22;4089;52.420;13.334;2023-05-23T02:13:36;17.50;91.80
8093;DHT22;4089;52.420;13.334;2023-05-23T02:16:03;17.50;93.00
8093;DHT22;4089;52.420;13.334;2023-05-23T02:18:29;17.50;93.20
8093;DHT22;4089;52.420;13.334;2023-05-23T02:20:56;17.30;95.30
8093;DHT22;4089;52.420;13.334;2023-05-23T02:23:23;17.20;96.60
8093;DHT22;4089;52.420;13.334;2023-05-23T02:25:50;17.10;96.40
8093;DHT22;4089;52.420;13.334;2023-05-23T02:28:17;17.10;96.20
8093;DHT22;4089;52.420;13.334;2023-05-23T02:30:44;17.10;97.30
8093;DHT22;4089;52.420;13.334;2023-05-23T02:33:11;17.20;96.40
8093;DHT22;4089;52.420;13.334;2023-05-23T02:35:38;17.30;95.40
8093;DHT22;4089;52.420;13.334;2023-05-23T02:38:06;17.30;95.80
8093;DHT22;4089;52.420;13.334;2023-05-23T02:40:33;17.30;95.30
8093;DHT22;4089;52.420;13.334;2023-05-23T02:42:59;17.40;95.40
8093;DHT22;4089;52.420;13.334;2023-05-23T02:45:26;17.40;95.70
8093;DHT22;4089;52.420;13.334;2023-05-23T02:47:53;17.40;96.20
8093;DHT22;4089;52.420;13.334;2023-05-23T02:50:20;17.40;96.70
8093;DHT22;4089;52.420;13.334;2023-05-23T02:52:47;17.40;96.60
8093;DHT22;4089;52.420;13.334;2023-05-23T02:55:13;17.40;97.80
8093;DHT22;4089;52.420;13.334;2023-05-23T02:57:41;17.30;99.90
8093;DHT22;4089;52.420;13.334;2023-05-23T03:00:08;17.30;99.90
8093;DHT22;4089;52.420;13.334;2023-05-23T03:02:35;17.30;98.40
8093;DHT22;4089;52.420;13.334;2023-05-23T03:05:03;17.20;99.90
8093;DHT22;4089;52.420;13.334;2023-05-23T03:07:31;17.10;99.90
8093;DHT22;4089;52.420;13.334;2023-05-23T03:09:59;17.10;99.90
8093;DHT22;4089;52.420;13.334;2023-05-23T03:12:27;17.20;99.90
8093;DHT22;4089;52.420;13.334;2023-05-23T03:14:54;17.20;99.70
8093;DHT22;4089;52.420;13.334;2023-05-23T03:17:23;17.30;98.40
8093;DHT22;4089;52.420;13.334;2023-05-23T03:19:50;17.30;98.80
8093;DHT22;4089;52.420;13.334;2023-05-23T03:22:17;17.20;99.90
8093;DHT22;4089;52.420;13.334;2023-05-23T03:24:44;17.20;99.90
8093;DHT22;4089;52.420;13.334;2023-05-23T03:27:11;17.10;99.90
8093;DHT22;4089;52.420;13.334;2023-05-23T03:29:38;17.10;99.90
8093;DHT22;4089;52.420;13.334;2023-05-23T03:32:05;17.10;99.90
8093;DHT22;4089;52.420;13.334;2023-05-23T03:34:32;17.10;99.90
8093;DHT22;4089;52.420;13.334;2023-05-23T03:36:59;17.10;99.90
8093;DHT22;4089;52.420;13.334;2023-05-23T03:39:26;17.00;99.90
8093;DHT22;4089;52.420;13.334;2023-05-23T03:41:53;17.00;99.90
8093;DHT22;4089;52.420;13.334;2023-05-23T03:44:20;16.90;99.90
8093;DHT22;4089;52.420;13.334;2023-05-23T03:46:46;16.90;99.90
8093;DHT22;4089;52.420;13.334;2023-05-23T03:49:13;16.90;99.90
8093;DHT22;4089;52.420;13.334;2023-05-23T03:51:40;16.80;99.90
8093;DHT22;4089;52.420;13.334;2023-05-23T03:54:07;16.80;99.90
8093;DHT22;4089;52.420;13.334;2023-05-23T03:56:34;16.80;99.90
8093;DHT22;4089;52.420;13.334;2023-05-23T03:59:01;16.90;99.90
8093;DHT22;4089;52.420;13.334;2023-05-23T04:01:27;16.90;99.90
8093;DHT22;4089;52.420;13.334;2023-05-23T04:03:54;17.00;99.90
8093;DHT22;4089;52.420;13.334;2023-05-23T04:06:21;17.00;99.90
8093;DHT22;4089;52.420;13.334;2023-05-23T04:08:48;17.00;99.90
8093;DHT22;4089;52.420;13.334;2023-05-23T04:11:15;17.00;99.90
8093;DHT22;4089;52.420;13.334;2023-05-23T04:13:43;17.00;99.90
8093;DHT22;4089;52.420;13.334;2023-05-23T04:16:12;17.10;99.90
8093;DHT22;4089;52.420;13.334;2023-05-23T04:18:39;17.10;99.90
8093;DHT22;4089;52.420;13.334;2023-05-23T04:21:06;17.00;99.90
8093;DHT22;4089;52.420;13.334;2023-05-23T04:23:33;17.10;99.90
8093;DHT22;4089;52.420;13.334;2023-05-23T04:26:00;17.10;99.90
8093;DHT22;4089;52.420;13.334;2023-05-23T04:28:27;17.20;99.90
8093;DHT22;4089;52.420;13.334;2023-05-23T04:30:53;17.10;99.90
8093;DHT22;4089;52.420;13.334;2023-05-23T04:33:22;17.00;99.90
8093;DHT22;4089;52.420;13.334;2023-05-23T04:35:49;17.10;99.90
8093;DHT22;4089;52.420;13.334;2023-05-23T04:38:16;17.20;99.90
8093;DHT22;4089;52.420;13.334;2023-05-23T04:40:43;17.20;99.90
8093;DHT22;4089;52.420;13.334;2023-05-23T04:43:10;17.20;99.90
8093;DHT22;4089;52.420;13.334;2023-05-23T04:45:39;17.10;99.90
8093;DHT22;4089;52.420;13.334;2023-05-23T04:48:07;17.10;99.90
8093;DHT22;4089;52.420;13.334;2023-05-23T04:50:34;17.20;99.90
8093;DHT22;4089;52.420;13.334;2023-05-23T04:53:01;17.30;99.90
8093;DHT22;4089;52.420;13.334;2023-05-23T04:55:28;17.40;99.90
8093;DHT22;4089;52.420;13.334;2023-05-23T04:57:55;17.30;99.90
8093;DHT22;4089;52.420;13.334;2023-05-23T05:00:22;17.40;99.90
8093;DHT22;4089;52.420;13.334;2023-05-23T05:02:49;17.30;99.90
8093;DHT22;4089;52.420;13.334;2023-05-23T05:05:16;17.40;99.90
8093;DHT22;4089;52.420;13.334;2023-05-23T05:07:43;17.40;99.90
8093;DHT22;4089;52.420;13.334;2023-05-23T05:10:10;17.40;99.90
8093;DHT22;4089;52.420;13.334;2023-05-23T05:12:44;17.50;99.90
8093;DHT22;4089;52.420;13.334;2023-05-23T05:15:12;17.40;99.90
8093;DHT22;4089;52.420;13.334;2023-05-23T05:17:39;17.20;99.90
8093;DHT22;4089;52.420;13.334;2023-05-23T05:20:07;17.20;99.90
8093;DHT22;4089;52.420;13.334;2023-05-23T05:22:37;17.20;99.90
8093;DHT22;4089;52.420;13.334;2023-05-23T05:25:09;17.30;99.90
8093;DHT22;4089;52.420;13.334;2023-05-23T05:27:36;17.20;99.90
8093;DHT22;4089;52.420;13.334;2023-05-23T05:30:07;17.20;99.90
8093;DHT22;4089;52.420;13.334;2023-05-23T05:32:34;17.20;99.90
8093;DHT22;4089;52.420;13.334;2023-05-23T05:35:02;17.20;99.90
8093;DHT22;4089;52.420;13.334;2023-05-23T05:37:29;17.30;99.90
8093;DHT22;4089;52.420;13.334;2023-05-23T05:39:56;17.20;99.90
8093;DHT22;4089;52.420;13.334;2023-05-23T05:42:23;17.20;99.90
8093;DHT22;4089;52.420;13.334;2023-05-23T05:44:50;17.20;99.90
8093;DHT22;4089;52.420;13.334;2023-05-23T05:47:16;17.20;99.90
8093;DHT22;4089;52.420;13.334;2023-05-23T05:49:43;17.20;99.90
8093;DHT22;4089;52.420;13.334;2023-05-23T05:52:10;17.10;99.90
8093;DHT22;4089;52.420;13.334;2023-05-23T05:54:37;17.10;99.90
8093;DHT22;4089;52.420;13.334;2023-05-23T05:57:04;17.30;99.90
8093;DHT22;4089;52.420;13.334;2023-05-23T05:59:31;17.20;99.90
8093;DHT22;4089;52.420;13.334;2023-05-23T06:01:58;17.30;99.90
8093;DHT22;4089;52.420;13.334;2023-05-23T06:04:25;17.10;99.90
8093;DHT22;4089;52.420;13.334;2023-05-23T06:06:52;17.20;99.90
8093;DHT22;4089;52.420;13.334;2023-05-23T06:09:18;17.30;99.90
8093;DHT22;4089;52.420;13.334;2023-05-23T06:11:46;17.40;99.90
8093;DHT22;4089;52.420;13.334;2023-05-23T06:14:13;17.50;99.90
8093;DHT22;4089;52.420;13.334;2023-05-23T06:16:40;17.60;99.90
8093;DHT22;4089;52.420;13.334;2023-05-23T06:19:07;17.60;99.90
8093;DHT22;4089;52.420;13.334;2023-05-23T06:21:34;17.70;99.90
8093;DHT22;4089;52.420;13.334;2023-05-23T06:24:01;17.70;99.90
8093;DHT22;4089;52.420;13.334;2023-05-23T06:26:30;17.70;99.90
8093;DHT22;4089;52.420;13.334;2023-05-23T06:28:57;17.80;99.90
8093;DHT22;4089;52.420;13.334;2023-05-23T06:31:24;18.00;99.90
8093;DHT22;4089;52.420;13.334;2023-05-23T06:33:51;18.10;99.90
8093;DHT22;4089;52.420;13.334;2023-05-23T06:36:18;18.20;99.90
8093;DHT22;4089;52.420;13.334;2023-05-23T06:38:44;18.40;99.90
8093;DHT22;4089;52.420;13.334;2023-05-23T06:41:41;18.60;99.90
8093;DHT22;4089;52.420;13.334;2023-05-23T06:44:08;18.80;99.90
8093;DHT22;4089;52.420;13.334;2023-05-23T06:46:35;18.90;99.90
8093;DHT22;4089;52.420;13.334;2023-05-23T06:49:05;19.20;99.90
8093;DHT22;4089;52.420;13.334;2023-05-23T06:51:39;19.30;99.90
8093;DHT22;4089;52.420;13.334;2023-05-23T06:54:06;19.30;99.90
8093;DHT22;4089;52.420;13.334;2023-05-23T06:56:32;19.40;99.90
8093;DHT22;4089;52.420;13.334;2023-05-23T06:58:59;19.50;99.90
8093;DHT22;4089;52.420;13.334;2023-05-23T07:01:26;19.50;99.90
8093;DHT22;4089;52.420;13.334;2023-05-23T07:03:53;19.50;99.90
8093;DHT22;4089;52.420;13.334;2023-05-23T07:06:20;19.70;99.90
8093;DHT22;4089;52.420;13.334;2023-05-23T07:08:46;19.90;99.90
8093;DHT22;4089;52.420;13.334;2023-05-23T07:11:13;20.00;99.90
8093;DHT22;4089;52.420;13.334;2023-05-23T07:13:40;20.10;99.90
8093;DHT22;4089;52.420;13.334;2023-05-23T07:16:07;20.20;99.90
8093;DHT22;4089;52.420;13.334;2023-05-23T07:18:34;20.10;99.90
8093;DHT22;4089;52.420;13.334;2023-05-23T07:21:04;20.20;99.90
8093;DHT22;4089;52.420;13.334;2023-05-23T07:23:34;20.20;99.90
8093;DHT22;4089;52.420;13.334;2023-05-23T07:26:01;19.90;99.90
8093;DHT22;4089;52.420;13.334;2023-05-23T07:28:29;19.90;99.90
8093;DHT22;4089;52.420;13.334;2023-05-23T07:30:55;19.90;99.90
8093;DHT22;4089;52.420;13.334;2023-05-23T07:33:24;19.90;99.90
8093;DHT22;4089;52.420;13.334;2023-05-23T07:35:50;19.80;98.60
8093;DHT22;4089;52.420;13.334;2023-05-23T07:38:17;20.00;99.90
8093;DHT22;4089;52.420;13.334;2023-05-23T07:40:44;20.30;99.90
8093;DHT22;4089;52.420;13.334;2023-05-23T07:43:28;20.30;99.40
8093;DHT22;4089;52.420;13.334;2023-05-23T07:45:55;20.30;98.50
8093;DHT22;4089;52.420;13.334;2023-05-23T07:48:22;20.20;99.20
8093;DHT22;4089;52.420;13.334;2023-05-23T07:50:48;20.30;99.90
8093;DHT22;4089;52.420;13.334;2023-05-23T07:53:20;20.30;99.90
8093;DHT22;4089;52.420;13.334;2023-05-23T07:55:48;20.40;99.70
8093;DHT22;4089;52.420;13.334;2023-05-23T07:58:15;20.30;99.70
8093;DHT22;4089;52.420;13.334;2023-05-23T08:00:41;20.30;99.90
8093;DHT22;4089;52.420;13.334;2023-05-23T08:03:09;20.50;99.90
8093;DHT22;4089;52.420;13.334;2023-05-23T08:05:37;20.50;99.90
8093;DHT22;4089;52.420;13.334;2023-05-23T08:08:04;20.50;99.90
8093;DHT22;4089;52.420;13.334;2023-05-23T08:10:31;20.60;99.90
8093;DHT22;4089;52.420;13.334;2023-05-23T08:12:58;20.60;99.90
8093;DHT22;4089;52.420;13.334;2023-05-23T08:15:26;20.60;99.90
8093;DHT22;4089;52.420;13.334;2023-05-23T08:17:54;20.60;99.90
8093;DHT22;4089;52.420;13.334;2023-05-23T08:20:23;20.50;99.90
8093;DHT22;4089;52.420;13.334;2023-05-23T08:22:57;20.60;99.90
8093;DHT22;4089;52.420;13.334;2023-05-23T08:25:25;20.90;99.90
8093;DHT22;4089;52.420;13.334;2023-05-23T08:27:56;20.90;99.90
8093;DHT22;4089;52.420;13.334;2023-05-23T08:30:25;20.80;99.90
8093;DHT22;4089;52.420;13.334;2023-05-23T08:32:52;20.90;99.90
8093;DHT22;4089;52.420;13.334;2023-05-23T08:35:20;21.10;99.90
8093;DHT22;4089;52.420;13.334;2023-05-23T08:37:49;21.30;99.90
8093;DHT22;4089;52.420;13.334;2023-05-23T08:40:20;21.50;99.90
8093;DHT22;4089;52.420;13.334;2023-05-23T08:42:48;21.50;99.90
8093;DHT22;4089;52.420;13.334;2023-05-23T08:45:16;21.50;99.90
8093;DHT22;4089;52.420;13.334;2023-05-23T08:47:44;21.50;99.90
8093;DHT22;4089;52.420;13.334;2023-05-23T08:50:12;21.60;99.90
8093;DHT22;4089;52.420;13.334;2023-05-23T08:52:44;21.60;99.90
8093;DHT22;4089;52.420;13.334;2023-05-23T08:55:13;21.20;99.90
8093;DHT22;4089;52.420;13.334;2023-05-23T08:57:41;21.20;99.90
8093;DHT22;4089;52.420;13.334;2023-05-23T09:00:11;21.20;99.90
8093;DHT22;4089;52.420;13.334;2023-05-23T09:02:43;21.30;99.90
8093;DHT22;4089;52.420;13.334;2023-05-23T09:05:12;21.30;99.90
8093;DHT22;4089;52.420;13.334;2023-05-23T09:07:41;21.30;99.90
8093;DHT22;4089;52.420;13.334;2023-05-23T09:10:09;21.50;99.90
8093;DHT22;4089;52.420;13.334;2023-05-23T09:12:36;21.50;99.90
8093;DHT22;4089;52.420;13.334;2023-05-23T09:15:07;21.50;99.90
8093;DHT22;4089;52.420;13.334;2023-05-23T09:17:35;21.80;99.90
8093;DHT22;4089;52.420;13.334;2023-05-23T09:20:10;22.00;99.90
8093;DHT22;4089;52.420;13.334;2023-05-23T09:22:38;22.00;99.90
8093;DHT22;4089;52.420;13.334;2023-05-23T09:25:06;21.70;99.90
8093;DHT22;4089;52.420;13.334;2023-05-23T09:27:34;21.70;99.90
8093;DHT22;4089;52.420;13.334;2023-05-23T09:30:09;21.60;99.90
8093;DHT22;4089;52.420;13.334;2023-05-23T09:32:36;21.40;99.90
8093;DHT22;4089;52.420;13.334;2023-05-23T09:35:05;21.00;99.90
8093;DHT22;4089;52.420;13.334;2023-05-23T09:37:42;20.90;99.90
8093;DHT22;4089;52.420;13.334;2023-05-23T09:40:13;21.00;99.90
8093;DHT22;4089;52.420;13.334;2023-05-23T09:42:45;21.10;99.90
8093;DHT22;4089;52.420;13.334;2023-05-23T09:45:13;21.10;99.90
8093;DHT22;4089;52.420;13.334;2023-05-23T09:47:52;21.00;99.90
8093;DHT22;4089;52.420;13.334;2023-05-23T09:50:20;20.90;99.90
8093;DHT22;4089;52.420;13.334;2023-05-23T09:52:47;20.80;99.90
8093;DHT22;4089;52.420;13.334;2023-05-23T09:55:14;20.70;99.90
8093;DHT22;4089;52.420;13.334;2023-05-23T09:57:42;20.90;99.90
8093;DHT22;4089;52.420;13.334;2023-05-23T10:00:10;20.90;99.90
8093;DHT22;4089;52.420;13.334;2023-05-23T10:05:49;20.80;99.90
8093;DHT22;4089;52.420;13.334;2023-05-23T10:08:35;20.80;99.90
8093;DHT22;4089;52.420;13.334;2023-05-23T10:13:42;20.80;99.90
8093;DHT22;4089;52.420;13.334;2023-05-23T10:16:29;21.10;99.90
8093;DHT22;4089;52.420;13.334;2023-05-23T10:19:07;21.10;99.90
8093;DHT22;4089;52.420;13.334;2023-05-23T10:21:42;21.10;99.90
8093;DHT22;4089;52.420;13.334;2023-05-23T10:24:12;21.00;99.90
8093;DHT22;4089;52.420;13.334;2023-05-23T10:26:40;20.80;99.90
8093;DHT22;4089;52.420;13.334;2023-05-23T10:29:06;20.50;99.90
8093;DHT22;4089;52.420;13.334;2023-05-23T10:31:34;20.30;99.90
8093;DHT22;4089;52.420;13.334;2023-05-23T10:37:28;20.20;99.90
8093;DHT22;4089;52.420;13.334;2023-05-23T10:42:30;19.90;99.90
8093;DHT22;4089;52.420;13.334;2023-05-23T10:45:19;19.70;99.90
8093;DHT22;4089;52.420;13.334;2023-05-23T10:47:49;19.60;99.90
8093;DHT22;4089;52.420;13.334;2023-05-23T10:50:36;19.60;99.90
8093;DHT22;4089;52.420;13.334;2023-05-23T10:53:06;19.70;99.90
8093;DHT22;4089;52.420;13.334;2023-05-23T10:55:35;20.00;99.90
8093;DHT22;4089;52.420;13.334;2023-05-23T10:58:19;20.00;99.90
8093;DHT22;4089;52.420;13.334;2023-05-23T11:01:01;19.90;99.90
8093;DHT22;4089;52.420;13.334;2023-05-23T11:03:48;19.80;99.90
8093;DHT22;4089;52.420;13.334;2023-05-23T11:06:32;19.90;99.90
8093;DHT22;4089;52.420;13.334;2023-05-23T11:09:25;19.90;99.90
8093;DHT22;4089;52.420;13.334;2023-05-23T11:11:51;20.00;99.90
8093;DHT22;4089;52.420;13.334;2023-05-23T11:14:19;19.80;99.90
8093;DHT22;4089;52.420;13.334;2023-05-23T11:16:46;19.60;99.90
8093;DHT22;4089;52.420;13.334;2023-05-23T11:21:58;19.30;99.90
8093;DHT22;4089;52.420;13.334;2023-05-23T11:30:05;19.20;99.90
8093;DHT22;4089;52.420;13.334;2023-05-23T11:32:32;19.20;99.90
8093;DHT22;4089;52.420;13.334;2023-05-23T11:35:06;19.00;99.90
8093;DHT22;4089;52.420;13.334;2023-05-23T11:37:34;19.00;99.90
8093;DHT22;4089;52.420;13.334;2023-05-23T11:40:25;18.90;99.90
8093;DHT22;4089;52.420;13.334;2023-05-23T11:42:53;18.80;99.90
8093;DHT22;4089;52.420;13.334;2023-05-23T11:45:25;18.80;99.90
8093;DHT22;4089;52.420;13.334;2023-05-23T11:47:52;18.90;99.90
8093;DHT22;4089;52.420;13.334;2023-05-23T11:50:20;19.00;99.90
8093;DHT22;4089;52.420;13.334;2023-05-23T11:52:47;19.10;99.90
8093;DHT22;4089;52.420;13.334;2023-05-23T11:55:21;19.10;99.90
8093;DHT22;4089;52.420;13.334;2023-05-23T11:57:49;18.90;99.90
8093;DHT22;4089;52.420;13.334;2023-05-23T12:00:18;18.90;99.90
8093;DHT22;4089;52.420;13.334;2023-05-23T12:02:45;19.00;99.90
8093;DHT22;4089;52.420;13.334;2023-05-23T12:05:15;19.10;99.90
8093;DHT22;4089;52.420;13.334;2023-05-23T12:07:47;19.00;99.90
8093;DHT22;4089;52.420;13.334;2023-05-23T12:10:16;18.90;99.90
8093;DHT22;4089;52.420;13.334;2023-05-23T12:12:43;19.00;99.90
8093;DHT22;4089;52.420;13.334;2023-05-23T12:15:13;18.90;99.90
8093;DHT22;4089;52.420;13.334;2023-05-23T12:17:44;19.00;99.90
8093;DHT22;4089;52.420;13.334;2023-05-23T12:20:12;19.10;99.90
8093;DHT22;4089;52.420;13.334;2023-05-23T12:22:40;19.00;99.90
8093;DHT22;4089;52.420;13.334;2023-05-23T12:25:10;19.00;99.90
8093;DHT22;4089;52.420;13.334;2023-05-23T12:27:40;19.00;99.90
8093;DHT22;4089;52.420;13.334;2023-05-23T12:30:13;19.00;99.90
8093;DHT22;4089;52.420;13.334;2023-05-23T12:32:41;19.10;99.90
8093;DHT22;4089;52.420;13.334;2023-05-23T12:35:11;19.10;99.90
8093;DHT22;4089;52.420;13.334;2023-05-23T12:37:40;18.90;99.90
8093;DHT22;4089;52.420;13.334;2023-05-23T12:40:12;18.90;99.90
8093;DHT22;4089;52.420;13.334;2023-05-23T12:42:53;18.90;99.90
8093;DHT22;4089;52.420;13.334;2023-05-23T12:45:22;18.80;99.90
8093;DHT22;4089;52.420;13.334;2023-05-23T12:47:49;18.80;99.90
8093;DHT22;4089;52.420;13.334;2023-05-23T12:50:20;18.90;99.90
8093;DHT22;4089;52.420;13.334;2023-05-23T12:52:46;19.00;99.90
8093;DHT22;4089;52.420;13.334;2023-05-23T12:55:13;19.20;99.90
8093;DHT22;4089;52.420;13.334;2023-05-23T12:57:40;19.40;99.90
8093;DHT22;4089;52.420;13.334;2023-05-23T13:00:08;19.50;99.90
8093;DHT22;4089;52.420;13.334;2023-05-23T13:02:35;19.70;99.90
8093;DHT22;4089;52.420;13.334;2023-05-23T13:05:02;19.80;99.90
8093;DHT22;4089;52.420;13.334;2023-05-23T13:07:29;19.90;99.90
8093;DHT22;4089;52.420;13.334;2023-05-23T13:09:56;19.90;99.90
8093;DHT22;4089;52.420;13.334;2023-05-23T13:12:23;19.70;99.90
8093;DHT22;4089;52.420;13.334;2023-05-23T13:14:50;19.50;99.90
8093;DHT22;4089;52.420;13.334;2023-05-23T13:17:17;19.40;99.90
8093;DHT22;4089;52.420;13.334;2023-05-23T13:19:44;19.20;99.90
8093;DHT22;4089;52.420;13.334;2023-05-23T13:22:11;19.20;99.90
8093;DHT22;4089;52.420;13.334;2023-05-23T13:24:39;19.10;99.90
8093;DHT22;4089;52.420;13.334;2023-05-23T13:27:06;19.10;99.90
8093;DHT22;4089;52.420;13.334;2023-05-23T13:29:33;19.10;99.90
8093;DHT22;4089;52.420;13.334;2023-05-23T13:32:00;19.10;99.90
8093;DHT22;4089;52.420;13.334;2023-05-23T13:34:27;19.00;99.90
8093;DHT22;4089;52.420;13.334;2023-05-23T13:36:54;18.80;99.90
8093;DHT22;4089;52.420;13.334;2023-05-23T13:39:21;18.70;99.90
8093;DHT22;4089;52.420;13.334;2023-05-23T13:41:51;18.60;99.90
8093;DHT22;4089;52.420;13.334;2023-05-23T13:44:18;18.50;99.90
8093;DHT22;4089;52.420;13.334;2023-05-23T13:46:45;18.30;99.90
8093;DHT22;4089;52.420;13.334;2023-05-23T13:49:11;18.30;99.90
8093;DHT22;4089;52.420;13.334;2023-05-23T13:51:38;18.10;99.90
8093;DHT22;4089;52.420;13.334;2023-05-23T13:54:05;17.90;99.90
8093;DHT22;4089;52.420;13.334;2023-05-23T13:56:32;17.90;99.90
8093;DHT22;4089;52.420;13.334;2023-05-23T13:59:00;17.90;99.90
8093;DHT22;4089;52.420;13.334;2023-05-23T14:01:26;18.00;99.90
8093;DHT22;4089;52.420;13.334;2023-05-23T14:03:54;18.00;99.90
8093;DHT22;4089;52.420;13.334;2023-05-23T14:06:21;18.00;99.90
8093;DHT22;4089;52.420;13.334;2023-05-23T14:08:48;18.00;99.90
8093;DHT22;4089;52.420;13.334;2023-05-23T14:11:14;18.00;99.90
8093;DHT22;4089;52.420;13.334;2023-05-23T14:13:41;18.00;99.90
8093;DHT22;4089;52.420;13.334;2023-05-23T14:16:08;18.00;99.90
8093;DHT22;4089;52.420;13.334;2023-05-23T14:18:35;18.00;99.90
8093;DHT22;4089;52.420;13.334;2023-05-23T14:21:01;18.00;99.90
8093;DHT22;4089;52.420;13.334;2023-05-23T14:23:28;18.00;99.90
8093;DHT22;4089;52.420;13.334;2023-05-23T14:25:55;18.00;99.90
8093;DHT22;4089;52.420;13.334;2023-05-23T14:28:23;18.00;99.90
8093;DHT22;4089;52.420;13.334;2023-05-23T14:30:50;18.00;99.90
8093;DHT22;4089;52.420;13.334;2023-05-23T14:33:17;18.00;99.90
8093;DHT22;4089;52.420;13.334;2023-05-23T14:35:44;17.90;99.90
8093;DHT22;4089;52.420;13.334;2023-05-23T14:38:11;17.80;99.90
8093;DHT22;4089;52.420;13.334;2023-05-23T14:40:37;17.60;99.90
8093;DHT22;4089;52.420;13.334;2023-05-23T14:43:04;17.50;99.90
8093;DHT22;4089;52.420;13.334;2023-05-23T14:45:31;17.60;99.90
8093;DHT22;4089;52.420;13.334;2023-05-23T14:47:58;17.60;99.90
8093;DHT22;4089;52.420;13.334;2023-05-23T14:50:25;17.60;99.90
8093;DHT22;4089;52.420;13.334;2023-05-23T14:52:52;17.60;99.90
8093;DHT22;4089;52.420;13.334;2023-05-23T14:55:19;17.40;99.90
8093;DHT22;4089;52.420;13.334;2023-05-23T14:57:46;17.30;99.90
8093;DHT22;4089;52.420;13.334;2023-05-23T15:00:13;17.10;99.90
8093;DHT22;4089;52.420;13.334;2023-05-23T15:02:40;17.00;99.90
8093;DHT22;4089;52.420;13.334;2023-05-23T15:05:07;16.80;99.90
8093;DHT22;4089;52.420;13.334;2023-05-23T15:07:34;16.70;99.90
8093;DHT22;4089;52.420;13.334;2023-05-23T15:10:01;16.70;99.90
8093;DHT22;4089;52.420;13.334;2023-05-23T15:12:28;16.60;99.90
8093;DHT22;4089;52.420;13.334;2023-05-23T15:14:55;16.60;99.90
8093;DHT22;4089;52.420;13.334;2023-05-23T15:17:29;16.20;99.90
8093;DHT22;4089;52.420;13.334;2023-05-23T15:19:56;15.90;99.90
8093;DHT22;4089;52.420;13.334;2023-05-23T15:22:24;15.60;99.90
8093;DHT22;4089;52.420;13.334;2023-05-23T15:25:06;15.50;99.90
8093;DHT22;4089;52.420;13.334;2023-05-23T15:27:33;15.40;99.90
8093;DHT22;4089;52.420;13.334;2023-05-23T15:30:00;15.30;99.90
8093;DHT22;4089;52.420;13.334;2023-05-23T15:32:27;15.40;99.90
8093;DHT22;4089;52.420;13.334;2023-05-23T15:34:54;15.30;99.90
8093;DHT22;4089;52.420;13.334;2023-05-23T15:37:21;15.30;99.90
8093;DHT22;4089;52.420;13.334;2023-05-23T15:39:48;15.30;99.90
8093;DHT22;4089;52.420;13.334;2023-05-23T15:42:15;15.20;99.90
8093;DHT22;4089;52.420;13.334;2023-05-23T15:44:41;15.20;99.90
8093;DHT22;4089;52.420;13.334;2023-05-23T15:47:08;15.10;99.90
8093;DHT22;4089;52.420;13.334;2023-05-23T15:49:36;15.10;99.90
8093;DHT22;4089;52.420;13.334;2023-05-23T15:52:03;15.00;99.90
8093;DHT22;4089;52.420;13.334;2023-05-23T15:54:29;14.90;99.90
8093;DHT22;4089;52.420;13.334;2023-05-23T15:56:56;14.90;99.90
8093;DHT22;4089;52.420;13.334;2023-05-23T15:59:23;15.00;99.90
8093;DHT22;4089;52.420;13.334;2023-05-23T16:01:50;15.00;99.90
8093;DHT22;4089;52.420;13.334;2023-05-23T16:04:17;14.90;99.90
8093;DHT22;4089;52.420;13.334;2023-05-23T16:06:45;14.90;99.90
8093;DHT22;4089;52.420;13.334;2023-05-23T16:09:12;14.80;99.90
8093;DHT22;4089;52.420;13.334;2023-05-23T16:11:38;14.80;99.90
8093;DHT22;4089;52.420;13.334;2023-05-23T16:14:05;14.70;99.90
8093;DHT22;4089;52.420;13.334;2023-05-23T16:16:33;14.70;99.90
8093;DHT22;4089;52.420;13.334;2023-05-23T16:19:00;14.70;99.90
8093;DHT22;4089;52.420;13.334;2023-05-23T16:21:27;14.60;99.90